Lime Rock — WDC2713 — position and weather

sailwx.info

Track history (hours):
 
Tides and Currents Weather Stations Pressure Air Temp Water Temp Dewpoint Dewpoint Depression Visibility Wind Speed Wind Dir Waves Ship Positions

Lime Rock

Owner: Kirby Inland Marine, LP, Houston, TX. More information available from US FCC via Universal Licensing System and Coast Guard Vessel Documentation Center.

Last reported at 2017-Sep-21 17:11 UTC. Time now 2017-Sep-21 17:49 UTC.
Position N 29°46' W 095°04'.

Length 208 m; draft 2.9 m.

Type: . MMSI: 366996710.

Date/timePositionNaut miles runAvg speedWind from/ knotsBaromVisibWave heightAir tempDewpointWater temp
2017-Sep-21 17:11N 29°46' W 095°04'1 3.5
2017-Sep-21 17:00N 29°46' W 095°05'3 5.5
2017-Sep-21 16:28N 29°44' W 095°08'5 1.9
2017-Sep-21 13:42N 29°44' W 095°14'4 0.3
2017-Sep-20 22:05N 29°44' W 095°09'1 2.8
2017-Sep-20 21:42N 29°44' W 095°08'0 1.1
2017-Sep-20 21:29N 29°44' W 095°07'5 4.6
2017-Sep-20 20:29N 29°44' W 095°02'3 5.4
2017-Sep-20 20:00N 29°42' W 095°00'3 6.3
2017-Sep-20 19:30N 29°39' W 094°58'4 7.0
2017-Sep-20 19:00N 29°36' W 094°57'3 6.9
2017-Sep-20 18:30N 29°33' W 094°55'  
Track history (hours):
 
Tides and Currents Weather Stations Pressure Air Temp Water Temp Dewpoint Dewpoint Depression Visibility Wind Speed Wind Dir Waves Ship Positions

Lime Rock

Owner: Kirby Inland Marine, LP, Houston, TX. More information available from US FCC via Universal Licensing System and Coast Guard Vessel Documentation Center.

Last reported at 2017-Sep-21 17:11 UTC. Time now 2017-Sep-21 17:49 UTC.
Position N 29°46' W 095°04'.

Length 208 m; draft 2.9 m.

Type: . MMSI: 366996710.

Date/timePositionNaut miles runAvg speedWind from/ knotsBaromVisibWave heightAir tempDewpointWater temp
2017-Sep-21 17:11N 29°46' W 095°04'1 3.5
2017-Sep-21 17:00N 29°46' W 095°05'3 5.5
2017-Sep-21 16:28N 29°44' W 095°08'5 1.9
2017-Sep-21 13:42N 29°44' W 095°14'4 0.3
2017-Sep-20 22:05N 29°44' W 095°09'1 2.8
2017-Sep-20 21:42N 29°44' W 095°08'0 1.1
2017-Sep-20 21:29N 29°44' W 095°07'5 4.6
2017-Sep-20 20:29N 29°44' W 095°02'3 5.4
2017-Sep-20 20:00N 29°42' W 095°00'3 6.3
2017-Sep-20 19:30N 29°39' W 094°58'4 7.0
2017-Sep-20 19:00N 29°36' W 094°57'3 6.9
2017-Sep-20 18:30N 29°33' W 094°55'  

Dump ship's entire track history